SBGL/GIG METAR and TAF weather

Enter ICAO airport designator
Station Type Date Time Source
SBGL METAR 2022/01/18 07:00 UTC NOAA

SBGL 180700Z 07003KT CAVOK 25/23 Q1012


Station Type Date Time Source
SBGL Decoded METAR 2022/01/18 07:00 UTC NOAA

Galeao, Brazil (SBGL) 22-49S 043-15W 42M
Jan 18, 2022 - 02:00 AM EST / 2022.01.18 0700 UTC
Wind: from the ENE (070 degrees) at 3 MPH (3 KT):0
Visibility: greater than 7 mile(s):0
Temperature: 77 F (25 C)
Dew Point: 73 F (23 C)
Relative Humidity: 88%
Pressure (altimeter): 29.88 in. Hg (1012 hPa)
ob: SBGL 180700Z 07003KT CAVOK 25/23 Q1012
cycle: 7

Station Type Date Time Source
SBGL TAF 2022/01/18 06:49 UTC NOAA

TAF SBGL 180345Z 1806/1912 33005KT 8000 FEW020 TN25/1809Z TX35/1817Z
BECMG 1808/1811 03005KT
BECMG 1814/1817 13012KT
BECMG 1820/1823 11007KT
BECMG 1900/1902 03005KT
BECMG 1904/1906 33005KT
BECMG 1908/1911 03005KT
RMK PHC

Example: see airport list